Route Details

Aircraft Information
Group: North America Fleet
Types: B738, B752, B762, B763
Route Data
Distance: 464nm
Duration: 1h 44m
Origin METAR: KATL 160052Z 26005KT 8SM -TSRA FEW015 SCT035CB BKN080 BKN200 23/21 A2989 RMK AO2 PK WND 28037/0017 WSHFT 0015 RAB19 TSB08 PRESFR SLP112 FRQ LTGICCG NE-SE TS NE-SE MOV SE P0013 T02280211
Dest. METAR: KIAD 160052Z 32006KT 10SM FEW024 BKN080 BKN120 19/17 A2998 RMK AO2 SLP151 T01940167
Freight Data
(for Aug 16, 2022)
Load Factor:
25%
Manifested Cargo: 30,529lbs
Financial History
Total Freight: 0lbs
Average Load: 0lbs/flt
Fuel Used: 0lbs
Avg. Fuel Used: 0lbs/flt
Fuel Expense: $0
Avg. Fuel Expense: $0
Avg. Fuel Cost: $0/lbs
Total Gross Income: $0
Pilot Pay: $0
Total Expenses: $0
Total Revenue: $0
Average Revenue: $0

Capitol Logistics 395




KATL
Hartsfield - Jackson Atlanta International Airport
Atlanta, Georgia
KIAD
Washington Dulles International Airport
Dulles, Virginia

Activity Log

Date Flight Route Aircraft Duration
No Flights Yet